sensor_id;sensor_type;location;lat;lon;timestamp;pressure;altitude;pressure_sealevel;temperature;humidity
70571;BME280;58135;50.948;-1.458;2022-10-18T00:01:53;102167.46;;;10.08;17.61
70571;BME280;58135;50.948;-1.458;2022-10-18T00:04:19;102172.71;;;9.94;17.59
70571;BME280;58135;50.948;-1.458;2022-10-18T00:06:44;102174.91;;;12.55;17.68
70571;BME280;58135;50.948;-1.458;2022-10-18T00:09:10;102172.46;;;11.63;17.59
70571;BME280;58135;50.948;-1.458;2022-10-18T00:11:35;102168.75;;;12.41;17.59
70571;BME280;58135;50.948;-1.458;2022-10-18T00:14:00;102165.91;;;11.45;17.71
70571;BME280;58135;50.948;-1.458;2022-10-18T00:16:26;102165.16;;;10.50;17.60
70571;BME280;58135;50.948;-1.458;2022-10-18T00:18:51;102165.18;;;10.27;17.54
70571;BME280;58135;50.948;-1.458;2022-10-18T00:21:19;102165.19;;;10.82;17.50
70571;BME280;58135;50.948;-1.458;2022-10-18T00:23:43;102170.00;;;12.37;17.52
70571;BME280;58135;50.948;-1.458;2022-10-18T00:26:10;102171.90;;;10.53;17.66
70571;BME280;58135;50.948;-1.458;2022-10-18T00:28:35;102172.59;;;11.45;17.71
70571;BME280;58135;50.948;-1.458;2022-10-18T00:31:08;102172.19;;;11.48;17.64
70571;BME280;58135;50.948;-1.458;2022-10-18T00:33:25;102169.67;;;11.43;17.52
70571;BME280;58135;50.948;-1.458;2022-10-18T00:35:51;102172.79;;;10.51;17.48
70571;BME280;58135;50.948;-1.458;2022-10-18T00:38:16;102171.61;;;10.39;17.42
70571;BME280;58135;50.948;-1.458;2022-10-18T00:40:42;102170.99;;;12.82;17.45
70571;BME280;58135;50.948;-1.458;2022-10-18T00:43:10;102172.54;;;11.87;17.48
70571;BME280;58135;50.948;-1.458;2022-10-18T00:45:33;102172.36;;;10.92;17.57
70571;BME280;58135;50.948;-1.458;2022-10-18T00:48:01;102171.01;;;10.84;17.47
70571;BME280;58135;50.948;-1.458;2022-10-18T00:50:26;102169.54;;;9.86;17.47
70571;BME280;58135;50.948;-1.458;2022-10-18T00:52:51;102170.34;;;11.60;17.52
70571;BME280;58135;50.948;-1.458;2022-10-18T00:55:15;102176.94;;;11.59;17.49
70571;BME280;58135;50.948;-1.458;2022-10-18T00:57:41;102177.76;;;10.64;17.44
70571;BME280;58135;50.948;-1.458;2022-10-18T01:00:07;102178.93;;;10.54;17.38
70571;BME280;58135;50.948;-1.458;2022-10-18T01:02:32;102181.43;;;9.56;17.45
70571;BME280;58135;50.948;-1.458;2022-10-18T01:04:57;102180.57;;;10.39;17.42
70571;BME280;58135;50.948;-1.458;2022-10-18T01:07:33;102184.96;;;11.17;17.43
70571;BME280;58135;50.948;-1.458;2022-10-18T01:09:56;102187.92;;;11.09;17.41
70571;BME280;58135;50.948;-1.458;2022-10-18T01:12:22;102191.30;;;11.02;17.41
70571;BME280;58135;50.948;-1.458;2022-10-18T01:14:45;102193.48;;;11.00;17.40
70571;BME280;58135;50.948;-1.458;2022-10-18T01:17:09;102193.23;;;12.68;17.47
70571;BME280;58135;50.948;-1.458;2022-10-18T01:21:59;102197.27;;;11.69;17.62
70571;BME280;58135;50.948;-1.458;2022-10-18T01:24:45;102195.98;;;11.69;17.63
70571;BME280;58135;50.948;-1.458;2022-10-18T01:27:02;102195.89;;;9.90;17.69
70571;BME280;58135;50.948;-1.458;2022-10-18T01:29:20;102196.50;;;11.67;17.71
70571;BME280;58135;50.948;-1.458;2022-10-18T01:31:42;102198.73;;;9.91;17.63
70571;BME280;58135;50.948;-1.458;2022-10-18T01:34:06;102199.54;;;11.61;17.58
70571;BME280;58135;50.948;-1.458;2022-10-18T01:36:32;102203.51;;;10.70;17.51
70571;BME280;58135;50.948;-1.458;2022-10-18T01:38:57;102209.70;;;10.65;17.57
70571;BME280;58135;50.948;-1.458;2022-10-18T01:41:23;102211.27;;;10.54;17.46
70571;BME280;58135;50.948;-1.458;2022-10-18T01:43:48;102209.22;;;12.08;17.33
70571;BME280;58135;50.948;-1.458;2022-10-18T01:46:13;102206.94;;;9.95;17.32
70571;BME280;58135;50.948;-1.458;2022-10-18T01:48:37;102206.66;;;10.65;17.31
70571;BME280;58135;50.948;-1.458;2022-10-18T01:51:03;102207.34;;;9.71;17.31
70571;BME280;58135;50.948;-1.458;2022-10-18T01:53:31;102210.12;;;11.52;17.39
70571;BME280;58135;50.948;-1.458;2022-10-18T01:56:04;102209.89;;;12.42;17.36
70571;BME280;58135;50.948;-1.458;2022-10-18T01:58:24;102212.46;;;8.77;17.35
70571;BME280;58135;50.948;-1.458;2022-10-18T02:00:47;102212.94;;;11.35;17.48
70571;BME280;58135;50.948;-1.458;2022-10-18T02:03:14;102217.72;;;10.44;17.59
70571;BME280;58135;50.948;-1.458;2022-10-18T02:05:38;102218.38;;;11.26;17.66
70571;BME280;58135;50.948;-1.458;2022-10-18T02:08:05;102219.84;;;8.53;17.59
70571;BME280;58135;50.948;-1.458;2022-10-18T02:10:30;102219.14;;;10.17;17.59
70571;BME280;58135;50.948;-1.458;2022-10-18T02:12:53;102218.77;;;10.16;17.52
70571;BME280;58135;50.948;-1.458;2022-10-18T02:15:20;102216.62;;;10.10;17.48
70571;BME280;58135;50.948;-1.458;2022-10-18T02:17:44;102214.35;;;9.16;17.51
70571;BME280;58135;50.948;-1.458;2022-10-18T02:20:10;102214.58;;;9.81;17.27
70571;BME280;58135;50.948;-1.458;2022-10-18T02:22:36;102218.56;;;9.23;17.31
70571;BME280;58135;50.948;-1.458;2022-10-18T02:25:03;102222.49;;;9.90;17.47
70571;BME280;58135;50.948;-1.458;2022-10-18T02:27:26;102228.27;;;10.16;17.43
70571;BME280;58135;50.948;-1.458;2022-10-18T02:29:51;102236.15;;;9.47;17.36
70571;BME280;58135;50.948;-1.458;2022-10-18T02:32:19;102237.36;;;10.21;17.29
70571;BME280;58135;50.948;-1.458;2022-10-18T02:34:45;102243.35;;;11.62;17.14
70571;BME280;58135;50.948;-1.458;2022-10-18T02:37:10;102245.93;;;8.47;17.34
70571;BME280;58135;50.948;-1.458;2022-10-18T02:39:35;102243.69;;;10.04;17.58
70571;BME280;58135;50.948;-1.458;2022-10-18T02:41:59;102245.24;;;11.06;17.64
70571;BME280;58135;50.948;-1.458;2022-10-18T02:44:25;102243.62;;;10.28;17.71
70571;BME280;58135;50.948;-1.458;2022-10-18T02:46:50;102241.41;;;11.24;17.70
70571;BME280;58135;50.948;-1.458;2022-10-18T02:49:15;102240.80;;;10.50;17.52
70571;BME280;58135;50.948;-1.458;2022-10-18T02:51:41;102240.66;;;11.39;17.42
70571;BME280;58135;50.948;-1.458;2022-10-18T02:54:07;102241.12;;;11.32;17.28
70571;BME280;58135;50.948;-1.458;2022-10-18T02:56:33;102244.98;;;9.43;17.07
70571;BME280;58135;50.948;-1.458;2022-10-18T02:58:58;102246.46;;;10.15;17.26
70571;BME280;58135;50.948;-1.458;2022-10-18T03:01:24;102248.78;;;10.27;17.31
70571;BME280;58135;50.948;-1.458;2022-10-18T03:03:49;102245.18;;;10.39;17.23
70571;BME280;58135;50.948;-1.458;2022-10-18T03:06:15;102247.70;;;8.66;17.37
70571;BME280;58135;50.948;-1.458;2022-10-18T03:08:40;102246.54;;;8.56;17.28
70571;BME280;58135;50.948;-1.458;2022-10-18T03:11:06;102245.74;;;10.11;17.18
70571;BME280;58135;50.948;-1.458;2022-10-18T03:13:31;102240.64;;;8.96;17.19
70571;BME280;58135;50.948;-1.458;2022-10-18T03:15:56;102237.72;;;9.60;17.32
70571;BME280;58135;50.948;-1.458;2022-10-18T03:18:22;102237.63;;;8.18;17.50
70571;BME280;58135;50.948;-1.458;2022-10-18T03:20:47;102237.06;;;8.92;17.70
70571;BME280;58135;50.948;-1.458;2022-10-18T03:23:13;102232.98;;;9.19;17.82
70571;BME280;58135;50.948;-1.458;2022-10-18T03:25:38;102233.24;;;10.20;17.79
70571;BME280;58135;50.948;-1.458;2022-10-18T03:28:04;102236.64;;;10.42;17.63
70571;BME280;58135;50.948;-1.458;2022-10-18T03:30:29;102236.10;;;10.26;17.60
70571;BME280;58135;50.948;-1.458;2022-10-18T03:32:55;102236.61;;;8.49;17.55
70571;BME280;58135;50.948;-1.458;2022-10-18T03:35:21;102237.23;;;10.16;17.55
70571;BME280;58135;50.948;-1.458;2022-10-18T03:37:46;102235.74;;;9.38;17.50
70571;BME280;58135;50.948;-1.458;2022-10-18T03:40:11;102236.15;;;9.44;17.46
70571;BME280;58135;50.948;-1.458;2022-10-18T03:42:36;102235.82;;;7.75;17.44
70571;BME280;58135;50.948;-1.458;2022-10-18T03:45:03;102235.88;;;10.47;17.42
70571;BME280;58135;50.948;-1.458;2022-10-18T03:47:28;102239.15;;;8.72;17.41
70571;BME280;58135;50.948;-1.458;2022-10-18T03:49:53;102240.17;;;8.70;17.51
70571;BME280;58135;50.948;-1.458;2022-10-18T03:52:19;102239.67;;;9.48;17.43
70571;BME280;58135;50.948;-1.458;2022-10-18T03:54:44;102242.18;;;7.57;17.34
70571;BME280;58135;50.948;-1.458;2022-10-18T03:57:10;102247.28;;;9.09;17.31
70571;BME280;58135;50.948;-1.458;2022-10-18T03:59:36;102247.40;;;9.86;17.34
70571;BME280;58135;50.948;-1.458;2022-10-18T04:02:01;102247.45;;;8.01;17.38
70571;BME280;58135;50.948;-1.458;2022-10-18T04:04:27;102249.58;;;9.48;17.49
70571;BME280;58135;50.948;-1.458;2022-10-18T04:06:53;102252.78;;;8.12;17.66
70571;BME280;58135;50.948;-1.458;2022-10-18T04:09:19;102254.64;;;10.30;17.79
70571;BME280;58135;50.948;-1.458;2022-10-18T04:11:44;102252.71;;;9.74;18.37
70571;BME280;58135;50.948;-1.458;2022-10-18T04:14:09;102254.34;;;8.23;18.23
70571;BME280;58135;50.948;-1.458;2022-10-18T04:16:35;102254.84;;;9.39;18.06
70571;BME280;58135;50.948;-1.458;2022-10-18T04:19:00;102258.52;;;10.50;17.99
70571;BME280;58135;50.948;-1.458;2022-10-18T04:21:26;102256.07;;;10.62;17.98
70571;BME280;58135;50.948;-1.458;2022-10-18T04:23:52;102253.70;;;8.92;17.81
70571;BME280;58135;50.948;-1.458;2022-10-18T04:26:17;102253.89;;;8.89;17.71
70571;BME280;58135;50.948;-1.458;2022-10-18T04:28:43;102261.32;;;9.81;17.74
70571;BME280;58135;50.948;-1.458;2022-10-18T04:31:09;102267.84;;;10.71;17.74
70571;BME280;58135;50.948;-1.458;2022-10-18T04:33:34;102270.27;;;8.96;17.42
70571;BME280;58135;50.948;-1.458;2022-10-18T04:36:00;102272.51;;;7.99;17.34
70571;BME280;58135;50.948;-1.458;2022-10-18T04:38:26;102272.67;;;9.63;17.30
70571;BME280;58135;50.948;-1.458;2022-10-18T04:40:51;102273.24;;;7.61;17.20
70571;BME280;58135;50.948;-1.458;2022-10-18T04:43:17;102278.98;;;8.38;17.17
70571;BME280;58135;50.948;-1.458;2022-10-18T04:45:43;102279.58;;;9.13;17.22
70571;BME280;58135;50.948;-1.458;2022-10-18T04:48:08;102280.51;;;9.10;17.21
70571;BME280;58135;50.948;-1.458;2022-10-18T04:50:34;102281.48;;;10.03;17.25
70571;BME280;58135;50.948;-1.458;2022-10-18T04:52:59;102279.28;;;9.09;17.31
70571;BME280;58135;50.948;-1.458;2022-10-18T04:55:25;102274.38;;;9.10;17.34
70571;BME280;58135;50.948;-1.458;2022-10-18T04:57:51;102277.08;;;10.04;17.35
70571;BME280;58135;50.948;-1.458;2022-10-18T05:00:16;102280.49;;;9.21;17.47
70571;BME280;58135;50.948;-1.458;2022-10-18T05:02:42;102285.47;;;10.04;17.47
70571;BME280;58135;50.948;-1.458;2022-10-18T05:05:08;102290.96;;;9.03;17.36
70571;BME280;58135;50.948;-1.458;2022-10-18T05:07:33;102296.32;;;8.88;17.50
70571;BME280;58135;50.948;-1.458;2022-10-18T05:09:59;102297.92;;;7.91;17.35
70571;BME280;58135;50.948;-1.458;2022-10-18T05:12:25;102298.58;;;9.52;17.27
70571;BME280;58135;50.948;-1.458;2022-10-18T05:14:50;102299.62;;;11.21;17.38
70571;BME280;58135;50.948;-1.458;2022-10-18T05:17:16;102299.53;;;8.54;17.34
70571;BME280;58135;50.948;-1.458;2022-10-18T05:19:42;102300.07;;;10.26;17.27
70571;BME280;58135;50.948;-1.458;2022-10-18T05:22:07;102295.53;;;9.10;17.22
70571;BME280;58135;50.948;-1.458;2022-10-18T05:24:33;102296.15;;;8.17;17.34
70571;BME280;58135;50.948;-1.458;2022-10-18T05:26:59;102293.82;;;8.26;17.37
70571;BME280;58135;50.948;-1.458;2022-10-18T05:29:25;102293.67;;;8.98;17.45
70571;BME280;58135;50.948;-1.458;2022-10-18T05:31:50;102293.71;;;7.17;17.53
70571;BME280;58135;50.948;-1.458;2022-10-18T05:34:16;102291.26;;;8.18;17.58
70571;BME280;58135;50.948;-1.458;2022-10-18T05:36:41;102291.92;;;9.12;17.52
70571;BME280;58135;50.948;-1.458;2022-10-18T05:39:07;102291.72;;;9.21;17.43
70571;BME280;58135;50.948;-1.458;2022-10-18T05:41:34;102291.05;;;8.37;17.38
70571;BME280;58135;50.948;-1.458;2022-10-18T05:44:01;102291.25;;;9.19;17.35
70571;BME280;58135;50.948;-1.458;2022-10-18T05:46:24;102290.00;;;7.37;17.26
70571;BME280;58135;50.948;-1.458;2022-10-18T05:48:50;102286.00;;;9.85;17.19
70571;BME280;58135;50.948;-1.458;2022-10-18T05:51:15;102289.66;;;8.90;17.29
70571;BME280;58135;50.948;-1.458;2022-10-18T05:53:41;102290.78;;;7.97;17.26
70571;BME280;58135;50.948;-1.458;2022-10-18T05:56:07;102293.11;;;7.97;17.35
70571;BME280;58135;50.948;-1.458;2022-10-18T05:58:33;102288.86;;;8.03;17.36
70571;BME280;58135;50.948;-1.458;2022-10-18T06:00:58;102285.26;;;8.90;17.35
70571;BME280;58135;50.948;-1.458;2022-10-18T06:03:23;102287.23;;;8.93;17.42
70571;BME280;58135;50.948;-1.458;2022-10-18T06:05:49;102290.89;;;7.23;17.45
70571;BME280;58135;50.948;-1.458;2022-10-18T06:08:15;102299.32;;;9.01;17.51
70571;BME280;58135;50.948;-1.458;2022-10-18T06:10:40;102300.29;;;9.03;17.36
70571;BME280;58135;50.948;-1.458;2022-10-18T06:13:06;102302.65;;;9.05;17.29
70571;BME280;58135;50.948;-1.458;2022-10-18T06:15:31;102301.92;;;8.04;17.07
70571;BME280;58135;50.948;-1.458;2022-10-18T06:17:57;102304.68;;;5.98;16.92
70571;BME280;58135;50.948;-1.458;2022-10-18T06:20:23;102304.77;;;9.28;17.23
70571;BME280;58135;50.948;-1.458;2022-10-18T06:22:50;102303.16;;;11.05;17.47
70571;BME280;58135;50.948;-1.458;2022-10-18T06:25:14;102303.67;;;9.36;17.31
70571;BME280;58135;50.948;-1.458;2022-10-18T06:27:40;102303.86;;;8.37;17.15
70571;BME280;58135;50.948;-1.458;2022-10-18T06:30:07;102305.24;;;6.95;17.37
70571;BME280;58135;50.948;-1.458;2022-10-18T06:32:31;102306.69;;;6.97;17.62
70571;BME280;58135;50.948;-1.458;2022-10-18T06:34:57;102310.44;;;8.19;17.63
70571;BME280;58135;50.948;-1.458;2022-10-18T06:37:22;102318.82;;;8.35;17.64
70571;BME280;58135;50.948;-1.458;2022-10-18T06:39:48;102322.43;;;7.56;17.49
70571;BME280;58135;50.948;-1.458;2022-10-18T06:42:14;102326.62;;;9.29;17.38
70571;BME280;58135;50.948;-1.458;2022-10-18T06:44:39;102329.05;;;9.30;17.48
70571;BME280;58135;50.948;-1.458;2022-10-18T06:47:06;102331.04;;;9.42;17.30
70571;BME280;58135;50.948;-1.458;2022-10-18T06:49:31;102331.79;;;9.36;17.30
70571;BME280;58135;50.948;-1.458;2022-10-18T06:51:56;102334.07;;;6.70;17.32
70571;BME280;58135;50.948;-1.458;2022-10-18T06:54:22;102330.66;;;8.51;17.37
70571;BME280;58135;50.948;-1.458;2022-10-18T06:56:48;102332.70;;;8.65;17.36
70571;BME280;58135;50.948;-1.458;2022-10-18T06:59:13;102336.56;;;8.41;17.28
70571;BME280;58135;50.948;-1.458;2022-10-18T07:01:39;102345.25;;;7.41;17.35
70571;BME280;58135;50.948;-1.458;2022-10-18T07:04:04;102349.47;;;8.35;17.40
70571;BME280;58135;50.948;-1.458;2022-10-18T07:06:29;102347.26;;;8.44;17.26
70571;BME280;58135;50.948;-1.458;2022-10-18T07:08:55;102342.31;;;5.60;16.72
70571;BME280;58135;50.948;-1.458;2022-10-18T07:11:22;102341.42;;;6.47;17.24
70571;BME280;58135;50.948;-1.458;2022-10-18T07:13:46;102339.80;;;9.21;17.36
70571;BME280;58135;50.948;-1.458;2022-10-18T07:16:13;102343.68;;;9.21;17.16
70571;BME280;58135;50.948;-1.458;2022-10-18T07:18:39;102346.83;;;7.90;17.20
70571;BME280;58135;50.948;-1.458;2022-10-18T07:21:04;102346.49;;;8.03;17.53
70571;BME280;58135;50.948;-1.458;2022-10-18T07:23:31;102343.13;;;8.28;17.60
70571;BME280;58135;50.948;-1.458;2022-10-18T07:25:54;102346.75;;;8.44;17.62
70571;BME280;58135;50.948;-1.458;2022-10-18T07:28:20;102352.77;;;8.74;17.76
70571;BME280;58135;50.948;-1.458;2022-10-18T07:30:46;102357.81;;;10.81;17.79
70571;BME280;58135;50.948;-1.458;2022-10-18T07:33:11;102361.95;;;8.34;17.57
70571;BME280;58135;50.948;-1.458;2022-10-18T07:35:37;102362.98;;;9.41;17.64
70571;BME280;58135;50.948;-1.458;2022-10-18T07:38:03;102361.55;;;7.83;17.70
70571;BME280;58135;50.948;-1.458;2022-10-18T07:40:28;102363.88;;;9.73;17.76
70571;BME280;58135;50.948;-1.458;2022-10-18T07:42:54;102367.58;;;9.93;17.75
70571;BME280;58135;50.948;-1.458;2022-10-18T07:45:19;102370.40;;;8.29;17.71
70571;BME280;58135;50.948;-1.458;2022-10-18T07:47:45;102375.84;;;10.18;17.78
70571;BME280;58135;50.948;-1.458;2022-10-18T07:50:11;102375.85;;;10.37;17.84
70571;BME280;58135;50.948;-1.458;2022-10-18T07:52:36;102376.35;;;8.62;17.65
70571;BME280;58135;50.948;-1.458;2022-10-18T07:55:02;102377.63;;;8.81;17.88
70571;BME280;58135;50.948;-1.458;2022-10-18T07:57:28;102382.95;;;9.91;17.87
70571;BME280;58135;50.948;-1.458;2022-10-18T07:59:53;102392.12;;;9.26;17.93
70571;BME280;58135;50.948;-1.458;2022-10-18T08:02:19;102392.10;;;9.35;17.93
70571;BME280;58135;50.948;-1.458;2022-10-18T08:04:45;102392.19;;;9.34;17.84
70571;BME280;58135;50.948;-1.458;2022-10-18T08:07:10;102392.93;;;10.45;18.08
70571;BME280;58135;50.948;-1.458;2022-10-18T08:09:37;102390.25;;;12.53;18.17
70571;BME280;58135;50.948;-1.458;2022-10-18T08:12:01;102387.76;;;10.97;18.12
70571;BME280;58135;50.948;-1.458;2022-10-18T08:14:27;102391.34;;;10.45;18.23
70571;BME280;58135;50.948;-1.458;2022-10-18T08:16:52;102392.14;;;9.87;18.28
70571;BME280;58135;50.948;-1.458;2022-10-18T08:19:18;102394.48;;;11.08;18.32
70571;BME280;58135;50.948;-1.458;2022-10-18T08:21:44;102394.47;;;9.60;18.33
70571;BME280;58135;50.948;-1.458;2022-10-18T08:24:09;102392.90;;;10.63;18.39
70571;BME280;58135;50.948;-1.458;2022-10-18T08:26:34;102389.50;;;10.87;18.38
70571;BME280;58135;50.948;-1.458;2022-10-18T08:29:00;102386.13;;;9.38;18.41
70571;BME280;58135;50.948;-1.458;2022-10-18T08:31:26;102386.97;;;9.65;18.46
70571;BME280;58135;50.948;-1.458;2022-10-18T08:33:53;102389.39;;;9.22;18.47
70571;BME280;58135;50.948;-1.458;2022-10-18T08:36:17;102393.85;;;9.61;18.43
70571;BME280;58135;50.948;-1.458;2022-10-18T08:38:43;102395.00;;;9.94;18.34
70571;BME280;58135;50.948;-1.458;2022-10-18T08:41:19;102393.83;;;11.08;18.10
70571;BME280;58135;50.948;-1.458;2022-10-18T08:43:37;102394.23;;;11.32;18.36
70571;BME280;58135;50.948;-1.458;2022-10-18T08:46:00;102395.18;;;11.67;18.40
70571;BME280;58135;50.948;-1.458;2022-10-18T08:48:32;102399.63;;;11.93;18.30
70571;BME280;58135;50.948;-1.458;2022-10-18T08:50:53;102406.09;;;12.15;18.30
70571;BME280;58135;50.948;-1.458;2022-10-18T08:53:19;102406.30;;;11.42;18.40
70571;BME280;58135;50.948;-1.458;2022-10-18T08:55:45;102404.77;;;11.53;18.44
70571;BME280;58135;50.948;-1.458;2022-10-18T08:58:16;102397.95;;;12.53;18.41
70571;BME280;58135;50.948;-1.458;2022-10-18T09:00:35;102397.11;;;11.82;18.38
70571;BME280;58135;50.948;-1.458;2022-10-18T09:03:16;102402.97;;;13.75;18.35
70571;BME280;58135;50.948;-1.458;2022-10-18T09:05:29;102401.43;;;12.14;18.46
70571;BME280;58135;50.948;-1.458;2022-10-18T09:08:02;102399.40;;;12.40;18.47
70571;BME280;58135;50.948;-1.458;2022-10-18T09:10:21;102397.03;;;10.91;18.56
70571;BME280;58135;50.948;-1.458;2022-10-18T09:12:53;102396.41;;;11.24;18.65
70571;BME280;58135;50.948;-1.458;2022-10-18T09:15:12;102394.44;;;11.38;18.40
70571;BME280;58135;50.948;-1.458;2022-10-18T09:17:38;102395.10;;;12.44;18.74
70571;BME280;58135;50.948;-1.458;2022-10-18T09:20:08;102398.65;;;12.64;18.70
70571;BME280;58135;50.948;-1.458;2022-10-18T09:22:29;102396.11;;;11.17;18.93
70571;BME280;58135;50.948;-1.458;2022-10-18T09:24:54;102392.16;;;11.68;19.08
70571;BME280;58135;50.948;-1.458;2022-10-18T09:27:15;102392.38;;;13.12;18.99
70571;BME280;58135;50.948;-1.458;2022-10-18T09:29:50;102393.51;;;12.63;18.91
70571;BME280;58135;50.948;-1.458;2022-10-18T09:32:14;102391.72;;;13.04;18.95
70571;BME280;58135;50.948;-1.458;2022-10-18T09:34:36;102390.42;;;13.46;18.96
70571;BME280;58135;50.948;-1.458;2022-10-18T09:36:55;102390.12;;;14.58;18.62
70571;BME280;58135;50.948;-1.458;2022-10-18T09:39:22;102390.79;;;14.73;19.40
70571;BME280;58135;50.948;-1.458;2022-10-18T09:41:49;102394.90;;;14.14;19.29
70571;BME280;58135;50.948;-1.458;2022-10-18T09:44:14;102394.48;;;12.77;19.51
70571;BME280;58135;50.948;-1.458;2022-10-18T09:46:40;102393.92;;;14.17;19.00
70571;BME280;58135;50.948;-1.458;2022-10-18T09:49:05;102393.01;;;13.54;18.95
70571;BME280;58135;50.948;-1.458;2022-10-18T09:51:33;102387.25;;;13.72;18.62
70571;BME280;58135;50.948;-1.458;2022-10-18T09:54:02;102382.54;;;14.79;18.59
70571;BME280;58135;50.948;-1.458;2022-10-18T09:56:24;102384.67;;;14.41;18.85
70571;BME280;58135;50.948;-1.458;2022-10-18T09:58:48;102391.43;;;16.49;18.44
70571;BME280;58135;50.948;-1.458;2022-10-18T10:01:12;102393.62;;;14.84;18.02
70571;BME280;58135;50.948;-1.458;2022-10-18T10:03:36;102399.43;;;13.26;17.98
70571;BME280;58135;50.948;-1.458;2022-10-18T10:06:14;102399.91;;;15.44;18.06
70571;BME280;58135;50.948;-1.458;2022-10-18T10:08:32;102396.10;;;13.97;17.98
70571;BME280;58135;50.948;-1.458;2022-10-18T10:10:52;102395.70;;;13.31;17.91
70571;BME280;58135;50.948;-1.458;2022-10-18T10:13:23;102393.22;;;16.15;17.24
70571;BME280;58135;50.948;-1.458;2022-10-18T10:15:45;102392.18;;;13.65;17.52
70571;BME280;58135;50.948;-1.458;2022-10-18T10:18:16;102393.85;;;15.55;17.29
70571;BME280;58135;50.948;-1.458;2022-10-18T10:20:40;102395.23;;;13.06;17.52
70571;BME280;58135;50.948;-1.458;2022-10-18T10:23:06;102398.10;;;12.34;17.52
70571;BME280;58135;50.948;-1.458;2022-10-18T10:25:29;102395.97;;;13.51;17.32
70571;BME280;58135;50.948;-1.458;2022-10-18T10:27:50;102397.40;;;13.55;17.38
70571;BME280;58135;50.948;-1.458;2022-10-18T10:30:24;102399.72;;;16.50;17.61
70571;BME280;58135;50.948;-1.458;2022-10-18T10:32:45;102391.93;;;14.98;17.36
70571;BME280;58135;50.948;-1.458;2022-10-18T10:37:33;102392.42;;;14.99;17.19
70571;BME280;58135;50.948;-1.458;2022-10-18T10:40:06;102391.15;;;16.18;16.88
70571;BME280;58135;50.948;-1.458;2022-10-18T10:42:23;102392.17;;;15.54;16.93
70571;BME280;58135;50.948;-1.458;2022-10-18T10:44:52;102393.90;;;15.83;16.77
70571;BME280;58135;50.948;-1.458;2022-10-18T10:49:42;102396.74;;;16.44;17.09
70571;BME280;58135;50.948;-1.458;2022-10-18T10:52:05;102398.41;;;15.93;16.66
70571;BME280;58135;50.948;-1.458;2022-10-18T10:54:30;102395.72;;;13.89;16.68
70571;BME280;58135;50.948;-1.458;2022-10-18T10:56:58;102393.64;;;18.43;16.92
70571;BME280;58135;50.948;-1.458;2022-10-18T10:59:23;102394.50;;;14.29;16.61
70571;BME280;58135;50.948;-1.458;2022-10-18T11:01:47;102392.61;;;16.21;16.63
70571;BME280;58135;50.948;-1.458;2022-10-18T11:04:23;102389.88;;;15.68;16.62
70571;BME280;58135;50.948;-1.458;2022-10-18T11:06:44;102389.07;;;17.06;16.79
70571;BME280;58135;50.948;-1.458;2022-10-18T11:09:11;102384.87;;;17.35;16.55
70571;BME280;58135;50.948;-1.458;2022-10-18T11:11:32;102381.05;;;17.47;15.93
70571;BME280;58135;50.948;-1.458;2022-10-18T11:13:58;102382.20;;;15.63;16.47
70571;BME280;58135;50.948;-1.458;2022-10-18T11:16:23;102382.37;;;15.78;15.94
70571;BME280;58135;50.948;-1.458;2022-10-18T11:18:47;102382.93;;;17.69;15.82
70571;BME280;58135;50.948;-1.458;2022-10-18T11:21:14;102385.67;;;15.81;15.42
70571;BME280;58135;50.948;-1.458;2022-10-18T11:23:38;102385.92;;;16.67;15.25
70571;BME280;58135;50.948;-1.458;2022-10-18T11:26:20;102386.69;;;15.10;15.57
70571;BME280;58135;50.948;-1.458;2022-10-18T11:28:36;102388.04;;;14.30;14.79
70571;BME280;58135;50.948;-1.458;2022-10-18T11:31:03;102379.57;;;14.75;15.32
70571;BME280;58135;50.948;-1.458;2022-10-18T11:33:22;102377.62;;;16.60;15.09
70571;BME280;58135;50.948;-1.458;2022-10-18T11:35:46;102373.81;;;15.80;15.10
70571;BME280;58135;50.948;-1.458;2022-10-18T11:38:18;102377.05;;;15.90;15.34
70571;BME280;58135;50.948;-1.458;2022-10-18T11:40:45;102383.73;;;16.09;14.94
70571;BME280;58135;50.948;-1.458;2022-10-18T11:43:05;102375.94;;;16.19;15.26
70571;BME280;58135;50.948;-1.458;2022-10-18T11:45:32;102373.35;;;15.54;15.37
70571;BME280;58135;50.948;-1.458;2022-10-18T11:47:55;102369.16;;;15.10;15.64
70571;BME280;58135;50.948;-1.458;2022-10-18T11:50:23;102371.20;;;18.48;15.00
70571;BME280;58135;50.948;-1.458;2022-10-18T11:52:49;102364.89;;;17.76;15.27
70571;BME280;58135;50.948;-1.458;2022-10-18T11:55:17;102357.06;;;16.97;15.34
70571;BME280;58135;50.948;-1.458;2022-10-18T11:57:40;102355.39;;;16.38;15.23
70571;BME280;58135;50.948;-1.458;2022-10-18T12:00:03;102351.86;;;17.35;15.89
70571;BME280;58135;50.948;-1.458;2022-10-18T12:02:36;102345.71;;;15.44;15.45
70571;BME280;58135;50.948;-1.458;2022-10-18T12:04:53;102341.11;;;17.18;15.58
70571;BME280;58135;50.948;-1.458;2022-10-18T12:07:15;102340.71;;;16.50;15.44
70571;BME280;58135;50.948;-1.458;2022-10-18T12:09:43;102339.38;;;15.67;15.60
70571;BME280;58135;50.948;-1.458;2022-10-18T12:12:11;102334.84;;;18.24;15.71
70571;BME280;58135;50.948;-1.458;2022-10-18T12:14:34;102333.29;;;16.90;15.77
70571;BME280;58135;50.948;-1.458;2022-10-18T12:17:01;102332.13;;;16.87;15.38
70571;BME280;58135;50.948;-1.458;2022-10-18T12:19:24;102327.55;;;17.24;15.30
70571;BME280;58135;50.948;-1.458;2022-10-18T12:21:47;102324.79;;;15.25;15.39
70571;BME280;58135;50.948;-1.458;2022-10-18T12:24:15;102321.33;;;16.46;15.18
70571;BME280;58135;50.948;-1.458;2022-10-18T12:26:38;102318.55;;;16.49;15.69
70571;BME280;58135;50.948;-1.458;2022-10-18T12:29:13;102316.84;;;17.50;14.99
70571;BME280;58135;50.948;-1.458;2022-10-18T12:31:31;102311.56;;;15.77;15.22
70571;BME280;58135;50.948;-1.458;2022-10-18T12:33:58;102308.97;;;17.81;15.46
70571;BME280;58135;50.948;-1.458;2022-10-18T12:36:32;102302.42;;;17.48;15.20
70571;BME280;58135;50.948;-1.458;2022-10-18T12:38:47;102302.42;;;16.51;15.24
70571;BME280;58135;50.948;-1.458;2022-10-18T12:41:18;102299.85;;;16.99;15.56